createdAt,value
2017-01-30T00:00:03.502Z,1015.52
2017-01-30T00:05:03.387Z,1015.41
2017-01-30T00:10:18.198Z,1015.4
2017-01-30T00:15:03.079Z,1015.39
2017-01-30T00:20:02.711Z,1015.19
2017-01-30T00:25:03.376Z,1015.1
2017-01-30T00:30:03.270Z,1015.04
2017-01-30T00:35:02.787Z,1015.07
2017-01-30T00:40:03.409Z,1014.91
2017-01-30T00:45:02.896Z,1014.86
2017-01-30T00:50:03.483Z,1014.75
2017-01-30T00:55:02.968Z,1014.65
2017-01-30T01:00:03.533Z,1014.52
2017-01-30T01:05:03.496Z,1014.45
2017-01-30T01:10:03.297Z,1014.31
2017-01-30T01:15:03.010Z,1014.26
2017-01-30T01:20:02.991Z,1014.18
2017-01-30T01:25:03.697Z,1013.92
2017-01-30T01:30:03.497Z,1013.75
2017-01-30T01:35:03.034Z,1013.62
2017-01-30T01:40:02.705Z,1013.49
2017-01-30T01:45:03.645Z,1013.38
2017-01-30T01:50:03.347Z,1013.25
2017-01-30T01:55:02.807Z,1013.14
2017-01-30T02:00:03.357Z,1013.09
2017-01-30T02:05:02.976Z,1012.98
2017-01-30T02:10:03.373Z,1013
2017-01-30T02:15:03.291Z,1012.77
2017-01-30T02:20:03.122Z,1012.58
2017-01-30T02:25:02.881Z,1012.5
2017-01-30T02:30:03.537Z,1012.35
2017-01-30T02:35:03.248Z,1012.26
2017-01-30T02:40:03.243Z,1012.09
2017-01-30T02:45:02.894Z,1012.08
2017-01-30T02:50:03.473Z,1011.88
2017-01-30T02:55:03.341Z,1011.86
2017-01-30T03:00:02.997Z,1011.73
2017-01-30T03:05:02.745Z,1011.65
2017-01-30T03:10:03.236Z,1011.37
2017-01-30T03:15:02.903Z,1011.26
2017-01-30T03:20:03.828Z,1011.15
2017-01-30T03:25:03.634Z,1010.97
2017-01-30T03:30:03.121Z,1010.88
2017-01-30T03:35:02.685Z,1010.83
2017-01-30T03:40:03.623Z,1010.82
2017-01-30T03:45:03.274Z,1010.69
2017-01-30T03:50:02.867Z,1010.64
2017-01-30T03:55:03.476Z,1010.41
2017-01-30T04:00:03.456Z,1010.31
2017-01-30T04:05:03.355Z,1010.67
2017-01-30T04:10:02.722Z,1010.12
2017-01-30T04:15:03.439Z,1010.38
2017-01-30T04:20:03.139Z,1010.28
2017-01-30T04:25:02.733Z,1010.15
2017-01-30T04:30:03.602Z,1010.08
2017-01-30T04:35:03.042Z,1010
2017-01-30T04:40:02.947Z,1009.73
2017-01-30T04:45:03.724Z,1009.82
2017-01-30T04:50:03.179Z,1009.72
2017-01-30T04:55:02.755Z,1009.76
2017-01-30T05:00:03.394Z,1009.84
2017-01-30T05:05:02.924Z,1009.59
2017-01-30T05:10:02.804Z,1009.5
2017-01-30T05:15:03.423Z,1009.64
2017-01-30T05:20:03.116Z,1009.62
2017-01-30T05:25:02.738Z,1009.47
2017-01-30T05:30:02.658Z,1009.37
2017-01-30T05:35:03.133Z,1009.34
2017-01-30T05:40:02.602Z,1009.2
2017-01-30T05:45:03.079Z,1009.21
2017-01-30T05:50:03.005Z,1009.19
2017-01-30T05:55:02.772Z,1009.13
2017-01-30T06:00:02.805Z,1009.06
2017-01-30T06:05:03.355Z,1009.04
2017-01-30T06:10:03.010Z,1009.01
2017-01-30T06:15:03.647Z,1009.09
2017-01-30T06:20:03.217Z,1009.19
2017-01-30T06:25:02.890Z,1008.91
2017-01-30T06:30:02.777Z,1009
2017-01-30T06:35:02.719Z,1008.95
2017-01-30T06:40:03.355Z,1008.92
2017-01-30T06:45:02.820Z,1008.86
2017-01-30T06:50:03.616Z,1008.91
2017-01-30T06:55:03.186Z,1008.87
2017-01-30T07:00:03.158Z,1008.84
2017-01-30T07:05:03.588Z,1008.79
2017-01-30T07:10:03.363Z,1008.81
2017-01-30T07:15:02.912Z,1008.91
2017-01-30T07:20:03.496Z,1008.85
2017-01-30T07:25:03.124Z,1008.78
2017-01-30T07:30:02.710Z,1008.84
2017-01-30T07:35:03.469Z,1008.85
2017-01-30T07:40:03.216Z,1008.86
2017-01-30T07:45:02.745Z,1008.82
2017-01-30T07:50:03.366Z,1008.84
2017-01-30T07:55:03.148Z,1008.84
2017-01-30T08:00:02.782Z,1008.76
2017-01-30T08:05:03.321Z,1008.74
2017-01-30T08:10:02.982Z,1008.76
2017-01-30T08:15:03.607Z,1008.83
2017-01-30T08:20:03.392Z,1008.76
2017-01-30T08:25:03.008Z,1008.71
2017-01-30T08:30:03.675Z,1008.72
2017-01-30T08:35:03.268Z,1008.66
2017-01-30T08:40:02.962Z,1008.65
2017-01-30T08:45:02.823Z,1008.52
2017-01-30T08:50:03.610Z,1008.54
2017-01-30T08:55:03.103Z,1008.51
2017-01-30T09:00:02.777Z,1008.5
2017-01-30T09:05:03.271Z,1008.42
2017-01-30T09:10:02.812Z,1008.44
2017-01-30T09:15:03.392Z,1008.4
2017-01-30T09:20:02.760Z,1008.46
2017-01-30T09:25:03.218Z,1008.42
2017-01-30T09:30:02.737Z,1008.38
2017-01-30T09:35:03.127Z,1008.36
2017-01-30T09:40:02.934Z,1008.26
2017-01-30T09:45:02.703Z,1008.25
2017-01-30T09:50:03.223Z,1008.4
2017-01-30T09:55:02.906Z,1008.29
2017-01-30T10:00:03.553Z,1008.27
2017-01-30T10:05:03.089Z,1008.28
2017-01-30T10:10:02.962Z,1008.29
2017-01-30T10:15:02.773Z,1008.33
2017-01-30T10:20:02.655Z,1008.3
2017-01-30T10:25:03.301Z,1008.29
2017-01-30T10:30:03.010Z,1008.39
2017-01-30T10:35:02.702Z,1008.35
2017-01-30T10:40:03.328Z,1008.37
2017-01-30T10:45:02.854Z,1008.39
2017-01-30T10:50:03.403Z,1008.28
2017-01-30T10:55:03.114Z,1008.25
2017-01-30T11:00:02.800Z,1008.2
2017-01-30T11:05:02.785Z,1008.11
2017-01-30T11:10:03.298Z,1008.07
2017-01-30T11:15:03.078Z,1008.11
2017-01-30T11:20:02.705Z,1008.21
2017-01-30T11:25:03.442Z,1008.2
2017-01-30T11:30:03.312Z,1008.12
2017-01-30T11:35:03.035Z,1008.16
2017-01-30T11:40:02.766Z,1008.13
2017-01-30T11:45:02.851Z,1008.12
2017-01-30T11:50:03.573Z,1008.11
2017-01-30T11:55:02.785Z,1008.07
2017-01-30T12:00:03.507Z,1008.11
2017-01-30T12:05:03.187Z,1008.13
2017-01-30T12:10:02.843Z,1007.88
2017-01-30T12:15:03.443Z,1007.87
2017-01-30T12:20:03.291Z,1007.89
2017-01-30T12:25:02.758Z,1007.87
2017-01-30T12:30:03.321Z,1007.74
2017-01-30T12:35:02.961Z,1007.77
2017-01-30T12:40:02.976Z,1007.55
2017-01-30T12:45:03.429Z,1007.7
2017-01-30T12:50:03.411Z,1007.69
2017-01-30T12:55:02.884Z,1007.68
2017-01-30T13:00:03.621Z,1007.54
2017-01-30T13:05:03.238Z,1007.55
2017-01-30T13:10:02.637Z,1007.53
2017-01-30T13:15:03.295Z,1007.54
2017-01-30T13:20:03.255Z,1007.49
2017-01-30T13:25:03.042Z,1007.62
2017-01-30T13:30:02.790Z,1007.65
2017-01-30T13:35:03.153Z,1007.66
2017-01-30T13:40:02.699Z,1007.7
2017-01-30T13:45:03.476Z,1007.56
2017-01-30T13:50:03.314Z,1007.65
2017-01-30T13:55:03.024Z,1007.58
2017-01-30T14:00:02.901Z,1007.69
2017-01-30T14:05:03.426Z,1007.8
2017-01-30T14:10:02.786Z,1007.86
2017-01-30T14:15:03.205Z,1007.82
2017-01-30T14:20:02.683Z,1007.86
2017-01-30T14:25:03.070Z,1007.85
2017-01-30T14:30:03.667Z,1007.96
2017-01-30T14:35:03.274Z,1008.07
2017-01-30T14:40:03.204Z,1008.17
2017-01-30T14:45:02.846Z,1008.28
2017-01-30T14:50:03.619Z,1008.28
2017-01-30T14:55:03.186Z,1008.37
2017-01-30T15:00:02.810Z,1008.47
2017-01-30T15:05:02.817Z,1008.64
2017-01-30T15:10:03.651Z,1008.65
2017-01-30T15:15:03.263Z,1008.72
2017-01-30T15:20:02.721Z,1008.84
2017-01-30T15:25:03.486Z,1008.84
2017-01-30T15:30:03.023Z,1008.94
2017-01-30T15:35:02.767Z,1008.97
2017-01-30T15:40:03.381Z,1008.97
2017-01-30T15:50:03.346Z,1009.14
2017-01-30T15:55:03.163Z,1009.17
2017-01-30T16:00:02.788Z,1009.2
2017-01-30T16:05:03.442Z,1009.35
2017-01-30T16:10:02.972Z,1009.55
2017-01-30T16:15:03.545Z,1009.58
2017-01-30T16:20:03.196Z,1009.69
2017-01-30T16:25:02.876Z,1009.79
2017-01-30T16:30:03.477Z,1009.88
2017-01-30T16:35:03.161Z,1010.07
2017-01-30T16:40:02.951Z,1010.18
2017-01-30T16:45:02.867Z,1010.23
2017-01-30T16:50:03.417Z,1010.28
2017-01-30T16:55:02.948Z,1010.3
2017-01-30T17:00:03.561Z,1010.35
2017-01-30T17:05:03.086Z,1010.45
2017-01-30T17:10:02.833Z,1010.46
2017-01-30T17:15:03.267Z,1010.55
2017-01-30T17:20:02.842Z,1010.66
2017-01-30T17:25:02.676Z,1010.75
2017-01-30T17:30:03.270Z,1010.84
2017-01-30T17:35:02.721Z,1010.94
2017-01-30T17:40:03.174Z,1011.01
2017-01-30T17:45:03.432Z,1011.02
2017-01-30T17:50:02.940Z,1011.11
2017-01-30T17:55:03.482Z,1011.18
2017-01-30T18:00:02.952Z,1011.21
2017-01-30T18:05:02.849Z,1011.33
2017-01-30T18:10:02.608Z,1011.48
2017-01-30T18:15:03.304Z,1011.59
2017-01-30T18:20:03.018Z,1011.55
2017-01-30T18:25:03.521Z,1011.68
2017-01-30T18:30:03.342Z,1011.71
2017-01-30T18:35:03.002Z,1011.67
2017-01-30T18:40:02.733Z,1011.74
2017-01-30T18:45:03.230Z,1011.71
2017-01-30T18:50:02.853Z,1011.78
2017-01-30T18:55:02.624Z,1011.87
2017-01-30T19:00:03.232Z,1011.97
2017-01-30T19:05:02.908Z,1011.93
2017-01-30T19:10:02.933Z,1012.02
2017-01-30T19:15:03.592Z,1012.12
2017-01-30T19:20:03.529Z,1012.22
2017-01-30T19:25:03.196Z,1012.17
2017-01-30T19:30:02.834Z,1012.28
2017-01-30T19:35:02.778Z,1012.31
2017-01-30T19:40:03.626Z,1012.34
2017-01-30T19:45:03.194Z,1012.46
2017-01-30T19:50:03.156Z,1012.49
2017-01-30T19:55:03.100Z,1012.52
2017-01-30T20:00:02.832Z,1012.57
2017-01-30T20:05:02.705Z,1012.63
2017-01-30T20:10:03.433Z,1012.65
2017-01-30T20:15:03.339Z,1012.66
2017-01-30T20:20:03.163Z,1012.71
2017-01-30T20:25:02.731Z,1012.75
2017-01-30T20:30:03.280Z,1012.69
2017-01-30T20:35:02.859Z,1012.77
2017-01-30T20:40:02.697Z,1012.78
2017-01-30T20:45:03.288Z,1012.82
2017-01-30T20:50:03.107Z,1012.82
2017-01-30T20:55:03.697Z,1012.94
2017-01-30T21:00:02.863Z,1013.02
2017-01-30T21:05:03.394Z,1013.03
2017-01-30T21:10:03.371Z,1013.03
2017-01-30T21:15:03.244Z,1013.09
2017-01-30T21:20:03.293Z,1013.08
2017-01-30T21:25:02.681Z,1013.15
2017-01-30T21:30:03.329Z,1013.25
2017-01-30T21:35:03.251Z,1013.22
2017-01-30T21:40:03.451Z,1013.3
2017-01-30T21:45:02.974Z,1013.23
2017-01-30T21:50:03.358Z,1013.25
2017-01-30T21:55:03.090Z,1013.26
2017-01-30T22:00:03.439Z,1013.28
2017-01-30T22:05:03.514Z,1013.3
2017-01-30T22:10:03.207Z,1013.34
2017-01-30T22:15:02.612Z,1013.34
2017-01-30T22:20:03.074Z,1013.35
2017-01-30T22:25:03.344Z,1013.39
2017-01-30T22:30:02.756Z,1013.37
2017-01-30T22:35:03.196Z,1013.47
2017-01-30T22:40:02.848Z,1013.44
2017-01-30T22:45:03.019Z,1013.5
2017-01-30T22:50:02.783Z,1013.48
2017-01-30T22:55:03.669Z,1013.49
2017-01-30T23:00:03.350Z,1013.55
2017-01-30T23:05:02.998Z,1013.48
2017-01-30T23:10:02.876Z,1013.51
2017-01-30T23:15:03.181Z,1013.46
2017-01-30T23:20:03.086Z,1013.52
2017-01-30T23:25:02.627Z,1013.55
2017-01-30T23:30:03.113Z,1013.64
2017-01-30T23:35:02.775Z,1013.69
2017-01-30T23:40:03.480Z,1013.7
2017-01-30T23:45:02.956Z,1013.68
2017-01-30T23:50:02.829Z,1013.7
2017-01-30T23:55:02.718Z,1013.73
